createdAt,value
2018-12-15T00:01:14.990Z,-1.90
2018-12-15T00:03:43.904Z,-2.00
2018-12-15T00:06:12.418Z,-1.90
2018-12-15T00:08:40.905Z,-1.90
2018-12-15T00:11:09.413Z,-1.80
2018-12-15T00:13:38.217Z,-1.80
2018-12-15T00:16:07.232Z,-1.90
2018-12-15T00:18:35.773Z,-1.80
2018-12-15T00:21:04.338Z,-1.90
2018-12-15T00:23:32.844Z,-1.90
2018-12-15T00:26:01.412Z,-1.80
2018-12-15T00:28:29.974Z,-1.80
2018-12-15T00:30:58.606Z,-1.90
2018-12-15T00:33:27.215Z,-1.80
2018-12-15T00:35:55.703Z,-1.80
2018-12-15T00:38:24.400Z,-1.90
2018-12-15T00:40:52.912Z,-2.00
2018-12-15T00:43:21.459Z,-2.00
2018-12-15T00:45:49.987Z,-1.90
2018-12-15T00:48:19.247Z,-1.90
2018-12-15T00:50:48.435Z,-1.80
2018-12-15T00:53:16.951Z,-1.90
2018-12-15T00:55:46.245Z,-1.80
2018-12-15T00:58:15.875Z,-1.80
2018-12-15T01:00:44.330Z,-1.90
2018-12-15T01:03:13.010Z,-1.70
2018-12-15T01:05:41.781Z,-1.80
2018-12-15T01:08:11.047Z,-1.80
2018-12-15T01:10:39.602Z,-1.80
2018-12-15T01:13:08.151Z,-1.90
2018-12-15T01:15:45.206Z,-1.80
2018-12-15T01:18:14.750Z,-1.90
2018-12-15T01:20:43.293Z,-1.90
2018-12-15T01:23:13.457Z,-1.90
2018-12-15T01:25:42.053Z,-1.90
2018-12-15T01:28:10.566Z,-1.90
2018-12-15T01:30:39.548Z,-1.90
2018-12-15T01:33:08.037Z,-1.90
2018-12-15T01:35:37.392Z,-1.90
2018-12-15T01:38:05.959Z,-1.90
2018-12-15T01:40:34.470Z,-1.90
2018-12-15T01:43:03.737Z,-1.70
2018-12-15T01:45:32.266Z,-1.80
2018-12-15T01:48:00.829Z,-1.80
2018-12-15T01:50:29.437Z,-1.90
2018-12-15T01:52:58.127Z,-2.00
2018-12-15T01:55:26.628Z,-1.90
2018-12-15T01:57:55.193Z,-1.80
2018-12-15T02:00:23.953Z,-1.80
2018-12-15T02:02:52.819Z,-1.90
2018-12-15T02:05:21.314Z,-1.90
2018-12-15T02:07:49.797Z,-1.90
2018-12-15T02:10:18.432Z,-2.00
2018-12-15T02:12:46.902Z,-2.00
2018-12-15T02:15:15.461Z,-2.00
2018-12-15T02:17:44.723Z,-2.00
2018-12-15T02:20:13.289Z,-1.90
2018-12-15T02:22:41.873Z,-2.00
2018-12-15T02:25:10.370Z,-1.90
2018-12-15T02:27:38.924Z,-2.00
2018-12-15T02:30:08.002Z,-1.90
2018-12-15T02:32:36.764Z,-1.90
2018-12-15T02:35:05.593Z,-2.00
2018-12-15T02:37:37.026Z,-2.00
2018-12-15T02:40:07.644Z,-2.10
2018-12-15T02:42:36.168Z,-1.90
2018-12-15T02:45:04.846Z,-2.00
2018-12-15T02:47:41.061Z,-1.90
2018-12-15T02:50:04.183Z,-2.00
2018-12-15T02:52:32.751Z,-2.00
2018-12-15T02:55:01.902Z,-2.10
2018-12-15T02:57:30.474Z,-2.00
2018-12-15T02:59:59.286Z,-2.10
2018-12-15T03:02:27.848Z,-2.10
2018-12-15T03:04:56.304Z,-2.00
2018-12-15T03:07:24.857Z,-2.00
2018-12-15T03:09:53.501Z,-2.00
2018-12-15T03:12:22.051Z,-2.00
2018-12-15T03:14:50.577Z,-2.10
2018-12-15T03:17:19.089Z,-2.00
2018-12-15T03:19:47.625Z,-2.00
2018-12-15T03:22:16.137Z,-2.10
2018-12-15T03:24:44.618Z,-2.20
2018-12-15T03:27:13.859Z,-2.10
2018-12-15T03:29:42.711Z,-2.10
2018-12-15T03:32:11.984Z,-2.10
2018-12-15T03:34:40.503Z,-2.10
2018-12-15T03:37:09.670Z,-2.10
2018-12-15T03:39:38.163Z,-2.10
2018-12-15T03:42:07.446Z,-2.20
2018-12-15T03:44:36.657Z,-2.20
2018-12-15T03:47:05.772Z,-2.20
2018-12-15T03:49:34.278Z,-2.10
2018-12-15T03:52:03.348Z,-2.10
2018-12-15T03:54:31.856Z,-2.10
2018-12-15T03:57:00.406Z,-2.10
2018-12-15T03:59:29.109Z,-2.10
2018-12-15T04:01:57.594Z,-2.20
2018-12-15T04:04:26.527Z,-2.20
2018-12-15T04:06:55.837Z,-2.00
2018-12-15T04:09:24.897Z,-2.10
2018-12-15T04:11:54.108Z,-2.10
2018-12-15T04:14:22.818Z,-2.20
2018-12-15T04:16:51.826Z,-1.90
2018-12-15T04:19:20.284Z,-2.00
2018-12-15T04:21:48.893Z,-2.00
2018-12-15T04:24:17.539Z,-2.00
2018-12-15T04:26:46.083Z,-2.10
2018-12-15T04:29:14.597Z,-2.10
2018-12-15T04:31:43.101Z,-2.00
2018-12-15T04:34:12.310Z,-2.10
2018-12-15T04:36:41.000Z,-2.10
2018-12-15T04:39:09.594Z,-2.10
2018-12-15T04:41:38.117Z,-2.10
2018-12-15T04:44:06.805Z,-2.00
2018-12-15T04:46:35.380Z,-2.00
2018-12-15T04:49:03.877Z,-2.00
2018-12-15T04:51:32.461Z,-2.00
2018-12-15T04:54:00.965Z,-2.00
2018-12-15T04:56:29.516Z,-2.00
2018-12-15T04:58:58.092Z,-2.00
2018-12-15T05:01:26.651Z,-2.10
2018-12-15T05:03:55.216Z,-2.10
2018-12-15T05:06:24.175Z,-2.10
2018-12-15T05:08:52.712Z,-2.10
2018-12-15T05:11:21.978Z,-2.10
2018-12-15T05:13:50.525Z,-2.20
2018-12-15T05:16:19.036Z,-2.30
2018-12-15T05:18:47.708Z,-2.20
2018-12-15T05:21:16.802Z,-2.20
2018-12-15T05:23:45.499Z,-2.20
2018-12-15T05:26:13.974Z,-2.20
2018-12-15T05:28:42.446Z,-2.20
2018-12-15T05:31:11.641Z,-2.20
2018-12-15T05:33:40.116Z,-2.20
2018-12-15T05:36:08.659Z,-2.30
2018-12-15T05:38:37.893Z,-2.20
2018-12-15T05:41:06.397Z,-2.20
2018-12-15T05:43:35.466Z,-2.10
2018-12-15T05:46:04.154Z,-2.00
2018-12-15T05:48:33.206Z,-2.00
2018-12-15T05:51:02.592Z,-2.00
2018-12-15T05:53:31.343Z,-2.10
2018-12-15T05:55:59.923Z,-2.10
2018-12-15T05:58:28.477Z,-2.10
2018-12-15T06:00:57.041Z,-2.20
2018-12-15T06:03:25.583Z,-2.10
2018-12-15T06:05:54.172Z,-2.10
2018-12-15T06:08:22.622Z,-2.20
2018-12-15T06:10:51.904Z,-2.10
2018-12-15T06:13:20.447Z,-2.10
2018-12-15T06:15:48.992Z,-2.10
2018-12-15T06:18:17.704Z,-2.20
2018-12-15T06:20:46.206Z,-2.10
2018-12-15T06:23:14.936Z,-2.20
2018-12-15T06:25:43.714Z,-2.20
2018-12-15T06:28:12.248Z,-2.20
2018-12-15T06:30:40.830Z,-2.20
2018-12-15T06:33:10.010Z,-2.20
2018-12-15T06:35:38.523Z,-2.10
2018-12-15T06:38:07.023Z,-2.10
2018-12-15T06:40:35.551Z,-2.10
2018-12-15T06:43:04.071Z,-2.10
2018-12-15T06:45:32.569Z,-2.10
2018-12-15T06:48:01.833Z,-2.10
2018-12-15T06:50:30.346Z,-2.20
2018-12-15T06:52:58.981Z,-2.00
2018-12-15T06:55:28.262Z,-2.00
2018-12-15T06:57:56.865Z,-2.10
2018-12-15T07:09:31.596Z,-2.10
2018-12-15T07:12:00.108Z,-2.20
2018-12-15T07:14:28.651Z,-2.20
2018-12-15T07:16:57.218Z,-2.30
2018-12-15T07:19:25.689Z,-2.20
2018-12-15T07:21:54.355Z,-2.20
2018-12-15T07:24:23.380Z,-2.20
2018-12-15T07:26:52.267Z,-2.20
2018-12-15T07:29:21.344Z,-2.10
2018-12-15T07:31:49.959Z,-2.00
2018-12-15T07:34:18.626Z,-1.90
2018-12-15T07:36:47.143Z,-2.00
2018-12-15T07:39:15.757Z,-1.90
2018-12-15T07:41:44.273Z,-2.00
2018-12-15T07:44:12.809Z,-2.00
2018-12-15T07:46:41.814Z,-2.00
2018-12-15T07:49:10.440Z,-2.10
2018-12-15T07:51:39.619Z,-2.10
2018-12-15T07:54:08.612Z,-2.00
2018-12-15T07:56:38.528Z,-2.00
2018-12-15T07:59:07.528Z,-1.90
2018-12-15T08:01:36.128Z,-1.90
2018-12-15T08:04:05.018Z,-1.90
2018-12-15T08:06:34.627Z,-1.90
2018-12-15T08:09:05.657Z,-1.80
2018-12-15T08:11:39.764Z,-1.90
2018-12-15T08:14:10.779Z,-1.80
2018-12-15T08:16:39.599Z,-1.80
2018-12-15T08:19:08.429Z,-1.80
2018-12-15T08:21:37.089Z,-1.80
2018-12-15T08:24:05.665Z,-1.80
2018-12-15T08:26:34.314Z,-1.80
2018-12-15T08:29:02.982Z,-1.80
2018-12-15T08:31:31.675Z,-1.80
2018-12-15T08:34:00.354Z,-1.80
2018-12-15T08:36:29.185Z,-1.80
2018-12-15T08:38:57.800Z,-1.80
2018-12-15T08:41:26.882Z,-1.80
2018-12-15T08:43:55.677Z,-1.80
2018-12-15T08:46:24.498Z,-1.80
2018-12-15T08:48:53.159Z,-1.80
2018-12-15T08:51:21.902Z,-1.80
2018-12-15T08:53:50.519Z,-1.70
2018-12-15T08:56:19.097Z,-1.70
2018-12-15T08:58:47.682Z,-1.80
2018-12-15T09:01:17.527Z,-1.70
2018-12-15T09:03:46.075Z,-1.70
2018-12-15T09:06:14.982Z,-1.70
2018-12-15T09:08:44.346Z,-1.70
2018-12-15T09:11:12.994Z,-1.70
2018-12-15T09:13:41.713Z,-1.70
2018-12-15T09:16:10.306Z,-1.40
2018-12-15T09:18:39.075Z,-1.40
2018-12-15T09:21:07.937Z,-1.40
2018-12-15T09:23:36.645Z,-1.50
2018-12-15T09:26:05.619Z,-1.50
2018-12-15T09:28:34.543Z,-1.50
2018-12-15T09:31:03.231Z,-1.60
2018-12-15T09:33:32.481Z,-1.50
2018-12-15T09:36:01.308Z,-1.50
2018-12-15T09:38:29.932Z,-1.50
2018-12-15T09:41:00.121Z,-1.50
2018-12-15T09:43:28.779Z,-1.40
2018-12-15T09:45:57.456Z,-1.50
2018-12-15T09:48:26.183Z,-1.50
2018-12-15T09:50:54.852Z,-1.40
2018-12-15T09:53:23.570Z,-1.40
2018-12-15T09:55:52.195Z,-1.40
2018-12-15T09:58:20.785Z,-1.30
2018-12-15T10:00:49.369Z,-1.30
2018-12-15T10:03:18.464Z,-1.30
2018-12-15T10:05:47.158Z,-1.20
2018-12-15T10:08:15.766Z,-1.20
2018-12-15T10:10:44.526Z,-1.20
2018-12-15T10:13:13.296Z,-1.20
2018-12-15T10:15:42.382Z,-1.20
2018-12-15T10:18:11.882Z,-1.30
2018-12-15T10:20:40.506Z,-1.20
2018-12-15T10:23:09.258Z,-1.20
2018-12-15T10:25:37.979Z,-1.20
2018-12-15T10:28:06.622Z,-1.20
2018-12-15T10:30:40.548Z,-1.10
2018-12-15T10:33:09.185Z,-1.20
2018-12-15T10:35:38.275Z,-1.20
2018-12-15T10:38:06.927Z,-1.30
2018-12-15T10:40:35.841Z,-1.30
2018-12-15T10:43:04.706Z,-1.20
2018-12-15T10:45:33.338Z,-1.10
2018-12-15T10:48:01.858Z,-1.10
2018-12-15T10:50:30.552Z,-1.20
2018-12-15T10:52:59.150Z,-1.10
2018-12-15T10:55:27.759Z,-1.10
2018-12-15T10:57:56.640Z,-1.00
2018-12-15T11:00:29.457Z,-1.00
2018-12-15T11:02:58.778Z,-1.00
2018-12-15T11:05:27.501Z,-0.90
2018-12-15T11:07:57.021Z,-0.90
2018-12-15T11:10:25.632Z,-0.90
2018-12-15T11:12:54.457Z,-0.90
2018-12-15T11:15:25.234Z,-0.90
2018-12-15T11:17:54.460Z,-1.00
2018-12-15T11:20:23.085Z,-1.00
2018-12-15T11:22:51.667Z,-1.00
2018-12-15T11:25:20.467Z,-1.00
2018-12-15T11:27:49.102Z,-1.00
2018-12-15T11:30:17.673Z,-0.90
2018-12-15T11:32:46.274Z,-0.80
2018-12-15T11:35:14.806Z,-0.70
2018-12-15T11:37:43.798Z,-0.70
2018-12-15T11:40:13.039Z,-0.70
2018-12-15T11:42:41.909Z,-0.80
2018-12-15T11:45:10.449Z,-0.80
2018-12-15T11:47:39.049Z,-0.70
2018-12-15T11:50:08.021Z,-0.80
2018-12-15T11:52:37.397Z,-0.80
2018-12-15T11:55:06.125Z,-0.70
2018-12-15T11:57:34.708Z,-0.70
2018-12-15T12:00:03.946Z,-0.60
2018-12-15T12:02:32.465Z,-0.60
2018-12-15T12:05:01.410Z,-0.50
2018-12-15T12:07:30.810Z,-0.50
2018-12-15T12:09:59.521Z,-0.70
2018-12-15T12:12:28.134Z,-0.70
2018-12-15T12:14:57.426Z,-0.70
2018-12-15T12:17:26.563Z,-0.60
2018-12-15T12:19:55.710Z,-0.60
2018-12-15T12:22:24.259Z,-0.60
2018-12-15T12:24:52.816Z,-0.50
2018-12-15T12:27:21.423Z,-0.70
2018-12-15T12:29:50.130Z,-0.70
2018-12-15T12:32:18.866Z,-0.70
2018-12-15T12:34:47.905Z,-0.60
2018-12-15T12:37:16.658Z,-0.70
2018-12-15T12:39:45.303Z,-0.70
2018-12-15T12:42:13.871Z,-0.60
2018-12-15T12:44:42.664Z,-0.60
2018-12-15T12:47:11.362Z,-0.60
2018-12-15T12:49:39.909Z,-0.70
2018-12-15T12:52:08.551Z,-0.70
2018-12-15T12:54:37.996Z,-0.40
2018-12-15T12:57:07.266Z,-0.50
2018-12-15T12:59:36.327Z,-0.40
2018-12-15T13:02:05.723Z,-0.40
2018-12-15T13:04:34.863Z,-0.40
2018-12-15T13:07:03.477Z,-0.50
2018-12-15T13:09:32.031Z,-0.50
2018-12-15T13:12:00.998Z,-0.50
2018-12-15T13:14:30.018Z,-0.50
2018-12-15T13:16:58.774Z,-0.60
2018-12-15T13:19:27.670Z,-0.60
2018-12-15T13:21:57.284Z,-0.60
2018-12-15T13:24:26.132Z,-0.60
2018-12-15T13:26:59.380Z,-0.60
2018-12-15T13:29:28.136Z,-0.60
2018-12-15T13:31:57.287Z,-0.80
2018-12-15T13:34:25.958Z,-0.80
2018-12-15T13:36:54.743Z,-0.70
2018-12-15T13:39:23.474Z,-0.90
2018-12-15T13:41:52.277Z,-0.80
2018-12-15T13:44:20.937Z,-0.70
2018-12-15T13:46:49.517Z,-0.80
2018-12-15T13:49:18.349Z,-0.80
2018-12-15T13:51:47.085Z,-0.90
2018-12-15T13:54:15.764Z,-0.90
2018-12-15T13:56:44.344Z,-0.90
2018-12-15T13:59:12.966Z,-1.00
2018-12-15T14:01:41.514Z,-1.00
2018-12-15T14:04:10.155Z,-1.00
2018-12-15T14:06:38.790Z,-1.00
2018-12-15T14:09:08.528Z,-0.90
2018-12-15T14:11:38.055Z,-0.90
2018-12-15T14:14:06.768Z,-0.90
2018-12-15T14:16:35.523Z,-1.00
2018-12-15T14:19:04.785Z,-1.00
2018-12-15T14:21:34.041Z,-1.10
2018-12-15T14:24:02.718Z,-1.10
2018-12-15T14:26:31.351Z,-1.10
2018-12-15T14:29:00.159Z,-1.10
2018-12-15T14:31:28.974Z,-1.10
2018-12-15T14:33:57.845Z,-1.10
2018-12-15T14:36:26.658Z,-1.10
2018-12-15T14:38:55.475Z,-1.20
2018-12-15T14:41:24.198Z,-1.20
2018-12-15T14:43:52.833Z,-1.20
2018-12-15T14:46:21.723Z,-1.20
2018-12-15T14:48:50.457Z,-1.30
2018-12-15T14:51:19.145Z,-1.30
2018-12-15T14:53:48.019Z,-1.20
2018-12-15T14:56:16.684Z,-1.20
2018-12-15T14:58:45.328Z,-1.30
2018-12-15T15:01:14.023Z,-1.30
2018-12-15T15:03:42.616Z,-1.20
2018-12-15T15:06:11.297Z,-1.30
2018-12-15T15:08:39.985Z,-1.20
2018-12-15T15:11:08.603Z,-1.20
2018-12-15T15:13:37.332Z,-1.20
2018-12-15T15:16:06.090Z,-1.30
2018-12-15T15:18:34.783Z,-1.30
2018-12-15T15:21:03.408Z,-1.30
2018-12-15T15:23:32.150Z,-1.30
2018-12-15T15:26:01.232Z,-1.30
2018-12-15T15:28:30.155Z,-1.40
2018-12-15T15:30:58.863Z,-1.40
2018-12-15T15:33:27.478Z,-1.40
2018-12-15T15:35:56.094Z,-1.40
2018-12-15T15:38:24.795Z,-1.50
2018-12-15T15:40:53.464Z,-1.30
2018-12-15T15:43:22.800Z,-1.40
2018-12-15T15:45:51.596Z,-1.40
2018-12-15T15:48:20.288Z,-1.40
2018-12-15T15:50:48.978Z,-1.50
2018-12-15T15:53:17.718Z,-1.50
2018-12-15T15:55:46.594Z,-1.50
2018-12-15T15:58:15.234Z,-1.50
2018-12-15T16:00:44.053Z,-1.50
2018-12-15T16:03:13.290Z,-1.50
2018-12-15T16:05:41.983Z,-1.30
2018-12-15T16:08:10.728Z,-1.40
2018-12-15T16:10:40.514Z,-1.40
2018-12-15T16:13:09.432Z,-1.40
2018-12-15T16:15:38.353Z,-1.40
2018-12-15T16:18:07.918Z,-1.50
2018-12-15T16:20:43.032Z,-1.50
2018-12-15T16:23:08.217Z,-1.40
2018-12-15T16:25:36.931Z,-1.40
2018-12-15T16:28:06.102Z,-1.40
2018-12-15T16:30:34.901Z,-1.50
2018-12-15T16:33:03.539Z,-1.50
2018-12-15T16:35:32.302Z,-1.60
2018-12-15T16:38:01.647Z,-1.70
2018-12-15T16:40:31.009Z,-1.60
2018-12-15T16:42:59.771Z,-1.60
2018-12-15T16:45:28.509Z,-1.70
2018-12-15T16:47:57.261Z,-1.70
2018-12-15T16:50:25.871Z,-1.70
2018-12-15T16:52:55.161Z,-1.70
2018-12-15T16:55:23.960Z,-1.70
2018-12-15T16:57:52.555Z,-1.70
2018-12-15T17:00:21.390Z,-1.60
2018-12-15T17:02:50.064Z,-1.50
2018-12-15T17:05:18.716Z,-1.60
2018-12-15T17:07:47.482Z,-1.50
2018-12-15T17:10:16.437Z,-1.60
2018-12-15T17:12:45.038Z,-1.60
2018-12-15T17:15:13.777Z,-1.60
2018-12-15T17:17:42.522Z,-1.70
2018-12-15T17:20:12.894Z,-1.70
2018-12-15T17:22:41.542Z,-1.80
2018-12-15T17:25:10.171Z,-1.80
2018-12-15T17:27:38.876Z,-1.70
2018-12-15T17:30:09.661Z,-1.70
2018-12-15T17:32:38.572Z,-1.80
2018-12-15T17:35:07.919Z,-1.80
2018-12-15T17:37:37.436Z,-1.80
2018-12-15T17:40:08.669Z,-1.60
2018-12-15T17:42:38.848Z,-1.70
2018-12-15T17:45:08.966Z,-1.70
2018-12-15T17:47:38.908Z,-1.60
2018-12-15T17:50:09.893Z,-1.60
2018-12-15T17:52:40.533Z,-1.70
2018-12-15T17:55:11.060Z,-1.60
2018-12-15T17:57:40.747Z,-1.70
2018-12-15T18:00:11.854Z,-1.70
2018-12-15T18:02:40.839Z,-1.80
2018-12-15T18:05:09.606Z,-1.80
2018-12-15T18:07:38.389Z,-1.90
2018-12-15T18:10:09.062Z,-1.80
2018-12-15T18:12:38.057Z,-1.80
2018-12-15T18:15:08.074Z,-1.80
2018-12-15T18:17:36.862Z,-1.80
2018-12-15T18:20:06.741Z,-1.80
2018-12-15T18:22:35.620Z,-1.80
2018-12-15T18:25:05.410Z,-1.70
2018-12-15T18:27:34.301Z,-1.70
2018-12-15T18:30:03.497Z,-1.70
2018-12-15T18:32:32.370Z,-1.70
2018-12-15T18:35:01.014Z,-1.80
2018-12-15T18:37:30.269Z,-1.70
2018-12-15T18:39:59.540Z,-1.80
2018-12-15T18:42:29.328Z,-1.80
2018-12-15T18:44:59.678Z,-1.80
2018-12-15T18:47:29.316Z,-1.90
2018-12-15T18:50:00.473Z,-1.90
2018-12-15T18:52:30.781Z,-1.90
2018-12-15T18:55:00.638Z,-1.90
2018-12-15T18:57:30.211Z,-1.90
2018-12-15T19:00:00.047Z,-1.90
2018-12-15T19:02:28.844Z,-1.90
2018-12-15T19:04:57.604Z,-1.90
2018-12-15T19:07:26.758Z,-1.90
2018-12-15T19:09:56.132Z,-1.90
2018-12-15T19:12:25.510Z,-1.90
2018-12-15T19:14:54.529Z,-1.90
2018-12-15T19:17:24.507Z,-1.90
2018-12-15T19:19:54.205Z,-2.10
2018-12-15T19:22:23.382Z,-2.10
2018-12-15T19:24:52.389Z,-2.20
2018-12-15T19:27:23.480Z,-2.20
2018-12-15T19:29:52.479Z,-2.30
2018-12-15T19:32:21.191Z,-2.50
2018-12-15T19:34:52.512Z,-2.40
2018-12-15T19:37:21.199Z,-2.50
2018-12-15T19:39:50.786Z,-2.60
2018-12-15T19:42:19.974Z,-2.50
2018-12-15T19:44:49.283Z,-2.50
2018-12-15T19:47:18.254Z,-2.70
2018-12-15T19:49:47.096Z,-2.80
2018-12-15T19:52:16.077Z,-2.80
2018-12-15T19:54:46.803Z,-2.90
2018-12-15T19:57:16.378Z,-3.00
2018-12-15T19:59:45.434Z,-2.90
2018-12-15T20:02:14.699Z,-2.90
2018-12-15T20:04:43.427Z,-3.10
2018-12-15T20:07:12.501Z,-3.10
2018-12-15T20:09:41.673Z,-3.00
2018-12-15T20:12:10.629Z,-3.20
2018-12-15T20:14:39.626Z,-3.40
2018-12-15T20:17:08.750Z,-3.60
2018-12-15T20:19:37.535Z,-3.70
2018-12-15T20:22:06.605Z,-3.90
2018-12-15T20:24:35.926Z,-4.20
2018-12-15T20:27:04.891Z,-4.30
2018-12-15T20:29:33.983Z,-4.40
2018-12-15T20:32:03.187Z,-4.50
2018-12-15T20:34:32.072Z,-4.70
2018-12-15T20:37:01.114Z,-4.90
2018-12-15T20:39:30.462Z,-5.00
2018-12-15T20:41:59.342Z,-5.10
2018-12-15T20:44:28.503Z,-5.10
2018-12-15T20:46:57.303Z,-5.20
2018-12-15T20:49:26.427Z,-5.30
2018-12-15T20:51:56.336Z,-5.40
2018-12-15T20:54:25.333Z,-5.50
2018-12-15T20:56:54.156Z,-5.60
2018-12-15T20:59:23.035Z,-5.70
2018-12-15T21:01:52.098Z,-5.70
2018-12-15T21:04:20.762Z,-5.80
2018-12-15T21:06:49.425Z,-5.80
2018-12-15T21:09:18.447Z,-5.80
2018-12-15T21:11:47.354Z,-5.80
2018-12-15T21:14:16.398Z,-5.80
2018-12-15T21:16:45.734Z,-5.90
2018-12-15T21:19:14.490Z,-5.70
2018-12-15T21:21:49.317Z,-5.80
2018-12-15T21:24:14.554Z,-5.70
2018-12-15T21:26:44.406Z,-5.70
2018-12-15T21:29:13.515Z,-5.70
2018-12-15T21:31:42.395Z,-5.70
2018-12-15T21:34:11.812Z,-5.70
2018-12-15T21:36:40.689Z,-5.70
2018-12-15T21:39:10.513Z,-5.70
2018-12-15T21:41:39.572Z,-5.70
2018-12-15T21:44:08.571Z,-5.60
2018-12-15T21:46:38.198Z,-5.60
2018-12-15T21:49:07.067Z,-5.50
2018-12-15T21:51:36.891Z,-5.40
2018-12-15T21:54:05.568Z,-5.40
2018-12-15T21:56:36.329Z,-5.40
2018-12-15T21:59:04.922Z,-5.30
2018-12-15T22:01:33.636Z,-5.30
2018-12-15T22:04:02.536Z,-5.20
2018-12-15T22:06:31.364Z,-5.20
2018-12-15T22:09:00.090Z,-5.10
2018-12-15T22:11:28.734Z,-5.00
2018-12-15T22:13:57.486Z,-5.00
2018-12-15T22:16:26.265Z,-4.90
2018-12-15T22:18:55.137Z,-4.90
2018-12-15T22:21:24.549Z,-4.80
2018-12-15T22:23:53.413Z,-4.70
2018-12-15T22:26:22.753Z,-4.60
2018-12-15T22:28:51.650Z,-4.50
2018-12-15T22:31:20.371Z,-4.50
2018-12-15T22:33:49.281Z,-4.50
2018-12-15T22:36:18.016Z,-4.40
2018-12-15T22:38:46.764Z,-4.40
2018-12-15T22:41:15.268Z,-4.40
2018-12-15T22:43:44.196Z,-4.40
2018-12-15T22:46:13.077Z,-4.40
2018-12-15T22:48:42.355Z,-4.40
2018-12-15T22:51:10.878Z,-4.40
2018-12-15T22:53:39.682Z,-4.30
2018-12-15T22:56:08.429Z,-3.90
2018-12-15T22:58:37.580Z,-3.90
2018-12-15T23:01:11.721Z,-3.80
2018-12-15T23:03:40.950Z,-3.80
2018-12-15T23:06:10.163Z,-3.90
2018-12-15T23:08:39.140Z,-4.00
2018-12-15T23:11:07.853Z,-4.00
2018-12-15T23:13:36.434Z,-4.10
2018-12-15T23:16:06.080Z,-3.80
2018-12-15T23:18:35.314Z,-3.80
2018-12-15T23:21:04.643Z,-3.90
2018-12-15T23:23:33.378Z,-3.70
2018-12-15T23:26:02.071Z,-3.60
2018-12-15T23:28:31.090Z,-3.60
2018-12-15T23:30:59.860Z,-3.60
2018-12-15T23:33:28.594Z,-3.60
2018-12-15T23:35:57.195Z,-3.60
2018-12-15T23:38:25.830Z,-3.60
2018-12-15T23:40:54.575Z,-3.40
2018-12-15T23:43:23.453Z,-3.50
2018-12-15T23:45:52.948Z,-3.40
2018-12-15T23:48:21.931Z,-3.50
2018-12-15T23:50:50.817Z,-3.40
2018-12-15T23:53:19.422Z,-3.40
2018-12-15T23:55:48.313Z,-3.40
2018-12-15T23:58:16.898Z,-3.50
